createdAt,value
2023-09-23T00:00:26.543Z,17.62
2023-09-23T00:03:01.266Z,17.59
2023-09-23T00:05:34.433Z,17.58
2023-09-23T00:08:07.254Z,17.58
2023-09-23T00:10:38.326Z,17.59
2023-09-23T00:13:08.917Z,17.61
2023-09-23T00:15:43.638Z,17.64
2023-09-23T00:18:18.855Z,17.66
2023-09-23T00:20:49.895Z,17.66
2023-09-23T00:23:21.337Z,17.67
2023-09-23T00:25:52.665Z,17.66
2023-09-23T00:28:31.691Z,17.65
2023-09-23T00:31:12.219Z,17.66
2023-09-23T00:33:43.470Z,17.66
2023-09-23T00:36:15.253Z,17.67
2023-09-23T00:38:45.859Z,17.69
2023-09-23T00:41:16.590Z,17.70
2023-09-23T00:43:49.869Z,17.71
2023-09-23T00:46:24.737Z,17.71
2023-09-23T00:48:56.705Z,17.69
2023-09-23T00:51:27.292Z,17.67
2023-09-23T00:53:58.569Z,17.65
2023-09-23T00:56:32.217Z,17.64
2023-09-23T00:59:04.464Z,17.62
2023-09-23T01:01:35.078Z,17.60
2023-09-23T01:04:07.283Z,17.59
2023-09-23T01:06:38.278Z,17.58
2023-09-23T01:09:12.166Z,17.57
2023-09-23T01:11:42.642Z,17.57
2023-09-23T01:14:13.265Z,17.58
2023-09-23T01:16:44.445Z,17.61
2023-09-23T01:19:18.715Z,17.64
2023-09-23T01:21:50.806Z,17.64
2023-09-23T01:24:21.872Z,17.64
2023-09-23T01:26:53.271Z,17.64
2023-09-23T01:29:24.672Z,17.66
2023-09-23T01:32:09.156Z,17.68
2023-09-23T01:34:39.914Z,17.69
2023-09-23T01:37:10.595Z,17.70
2023-09-23T01:39:42.682Z,17.72
2023-09-23T01:42:13.642Z,17.73
2023-09-23T01:44:45.359Z,17.74
2023-09-23T01:47:17.512Z,17.76
2023-09-23T01:49:48.336Z,17.75
2023-09-23T01:52:18.907Z,17.75
2023-09-23T01:54:50.183Z,17.75
2023-09-23T01:57:20.690Z,17.76
2023-09-23T01:59:51.156Z,17.77
2023-09-23T02:02:21.825Z,17.78
2023-09-23T02:04:52.569Z,17.78
2023-09-23T02:07:23.090Z,17.78
2023-09-23T02:09:53.537Z,17.78
2023-09-23T02:12:24.549Z,17.78
2023-09-23T02:14:55.174Z,17.77
2023-09-23T02:17:27.130Z,17.76
2023-09-23T02:19:58.843Z,17.77
2023-09-23T02:22:27.803Z,17.77
2023-09-23T02:24:58.263Z,17.76
2023-09-23T02:27:28.733Z,17.77
2023-09-23T02:29:59.321Z,17.74
2023-09-23T02:32:30.106Z,17.73
2023-09-23T02:35:00.618Z,17.72
2023-09-23T02:37:31.192Z,17.69
2023-09-23T02:40:01.691Z,17.66
2023-09-23T02:42:32.174Z,17.64
2023-09-23T02:45:04.956Z,17.61
2023-09-23T02:47:35.557Z,17.61
2023-09-23T02:50:11.074Z,17.62
2023-09-23T02:52:43.331Z,17.62
2023-09-23T02:55:17.000Z,17.61
2023-09-23T02:57:52.211Z,17.59
2023-09-23T03:00:24.698Z,17.58
2023-09-23T03:02:57.881Z,17.56
2023-09-23T03:05:32.776Z,17.55
2023-09-23T03:08:04.090Z,17.54
2023-09-23T03:10:35.792Z,17.54
2023-09-23T03:13:08.676Z,17.55
2023-09-23T03:15:46.308Z,17.58
2023-09-23T03:18:18.944Z,17.61
2023-09-23T03:20:50.411Z,17.63
2023-09-23T03:23:21.727Z,17.64
2023-09-23T03:25:53.957Z,17.65
2023-09-23T03:28:23.536Z,17.66
2023-09-23T03:31:02.582Z,17.65
2023-09-23T03:33:33.354Z,17.64
2023-09-23T03:36:04.370Z,17.62
2023-09-23T03:38:34.958Z,17.59
2023-09-23T03:41:05.493Z,17.57
2023-09-23T03:43:35.982Z,17.55
2023-09-23T03:46:15.192Z,17.56
2023-09-23T03:48:46.538Z,17.55
2023-09-23T03:51:17.718Z,17.54
2023-09-23T03:53:49.704Z,17.55
2023-09-23T03:56:20.650Z,17.54
2023-09-23T03:58:51.197Z,17.54
2023-09-23T04:01:22.991Z,17.55
2023-09-23T04:03:52.268Z,17.57
2023-09-23T04:06:23.228Z,17.54
2023-09-23T04:08:56.186Z,17.53
2023-09-23T04:11:27.226Z,17.51
2023-09-23T04:13:58.106Z,17.51
2023-09-23T04:16:28.693Z,17.52
2023-09-23T04:18:59.296Z,17.52
2023-09-23T04:21:31.491Z,17.51
2023-09-23T04:24:02.765Z,17.50
2023-09-23T04:26:33.216Z,17.48
2023-09-23T04:29:03.990Z,17.48
2023-09-23T04:31:34.568Z,17.46
2023-09-23T04:34:05.165Z,17.45
2023-09-23T04:36:35.644Z,17.43
2023-09-23T04:39:07.846Z,17.40
2023-09-23T04:41:41.403Z,17.38
2023-09-23T04:44:11.913Z,17.37
2023-09-23T04:46:42.587Z,17.34
2023-09-23T04:49:13.060Z,17.34
2023-09-23T04:51:48.209Z,17.34
2023-09-23T04:54:18.718Z,17.34
2023-09-23T04:56:49.144Z,17.35
2023-09-23T04:59:19.720Z,17.34
2023-09-23T05:01:50.351Z,17.33
2023-09-23T05:04:20.924Z,17.31
2023-09-23T05:06:52.068Z,17.30
2023-09-23T05:09:21.802Z,17.28
2023-09-23T05:11:53.974Z,17.25
2023-09-23T05:14:26.411Z,17.23
2023-09-23T05:16:57.019Z,17.21
2023-09-23T05:19:28.737Z,17.20
2023-09-23T05:21:57.692Z,17.22
2023-09-23T05:24:28.837Z,17.23
2023-09-23T05:27:01.245Z,17.27
2023-09-23T05:29:31.895Z,17.30
2023-09-23T05:32:03.656Z,17.31
2023-09-23T05:34:32.622Z,17.35
2023-09-23T05:37:03.060Z,17.37
2023-09-23T05:39:35.959Z,17.39
2023-09-23T05:42:06.697Z,17.43
2023-09-23T05:44:37.271Z,17.47
2023-09-23T05:47:07.859Z,17.47
2023-09-23T05:49:40.174Z,17.47
2023-09-23T05:52:11.659Z,17.47
2023-09-23T05:54:42.105Z,17.49
2023-09-23T05:57:12.730Z,17.51
2023-09-23T05:59:43.270Z,17.52
2023-09-23T06:02:13.775Z,17.53
2023-09-23T06:04:44.249Z,17.54
2023-09-23T06:07:14.692Z,17.55
2023-09-23T06:09:47.930Z,17.56
2023-09-23T06:12:18.407Z,17.58
2023-09-23T06:14:50.339Z,17.60
2023-09-23T06:17:21.024Z,17.61
2023-09-23T06:19:52.693Z,17.63
2023-09-23T06:22:23.170Z,17.65
2023-09-23T06:24:54.453Z,17.66
2023-09-23T06:27:24.940Z,17.66
2023-09-23T06:29:55.571Z,17.69
2023-09-23T06:32:26.169Z,17.71
2023-09-23T06:34:56.990Z,17.72
2023-09-23T06:37:27.618Z,17.73
2023-09-23T06:39:58.051Z,17.75
2023-09-23T06:42:28.563Z,17.81
2023-09-23T06:45:00.246Z,17.84
2023-09-23T06:47:29.376Z,17.84
2023-09-23T06:49:59.996Z,17.80
2023-09-23T06:52:30.504Z,17.77
2023-09-23T06:55:01.474Z,17.77
2023-09-23T06:57:32.013Z,17.77
2023-09-23T07:00:02.892Z,17.80
2023-09-23T07:02:33.553Z,17.83
2023-09-23T07:05:04.495Z,17.89
2023-09-23T07:07:35.093Z,17.95
2023-09-23T07:10:06.381Z,17.99
2023-09-23T07:12:37.114Z,18.03
2023-09-23T07:15:09.591Z,18.05
2023-09-23T07:17:40.143Z,18.08
2023-09-23T07:20:13.585Z,18.10
2023-09-23T07:22:44.145Z,18.11
2023-09-23T07:25:14.856Z,18.11
2023-09-23T07:27:45.318Z,18.13
2023-09-23T07:30:18.644Z,18.17
2023-09-23T07:32:49.367Z,18.20
2023-09-23T07:35:20.314Z,18.21
2023-09-23T07:37:51.528Z,18.20
2023-09-23T07:40:22.106Z,18.20
2023-09-23T07:42:53.112Z,18.23
2023-09-23T07:45:23.922Z,18.22
2023-09-23T07:47:54.489Z,18.21
2023-09-23T07:50:25.289Z,18.19
2023-09-23T07:52:55.843Z,18.19
2023-09-23T07:55:26.403Z,18.19
2023-09-23T07:57:56.845Z,18.21
2023-09-23T08:00:28.516Z,18.22
2023-09-23T08:02:57.659Z,18.22
2023-09-23T08:05:30.129Z,18.22
2023-09-23T08:08:00.645Z,18.23
2023-09-23T08:10:32.245Z,18.23
2023-09-23T08:13:03.826Z,18.21
2023-09-23T08:15:34.310Z,18.17
2023-09-23T08:18:06.484Z,18.13
2023-09-23T08:20:37.011Z,18.05
2023-09-23T08:23:07.628Z,18.00
2023-09-23T08:25:38.111Z,17.96
2023-09-23T08:28:09.328Z,17.93
2023-09-23T08:30:39.843Z,17.91
2023-09-23T08:33:10.392Z,17.89
2023-09-23T08:35:42.835Z,17.88
2023-09-23T08:38:13.649Z,17.85
2023-09-23T08:40:46.560Z,17.82
2023-09-23T08:43:19.381Z,17.82
2023-09-23T08:45:49.909Z,17.82
2023-09-23T08:48:21.163Z,17.80
2023-09-23T08:50:54.912Z,17.77
2023-09-23T08:53:28.440Z,17.75
2023-09-23T08:55:59.768Z,17.75
2023-09-23T08:58:30.272Z,17.75
2023-09-23T09:01:01.077Z,17.74
2023-09-23T09:03:32.697Z,17.75
2023-09-23T09:06:04.545Z,17.79
2023-09-23T09:08:35.699Z,17.82
2023-09-23T09:11:06.274Z,17.86
2023-09-23T09:13:37.257Z,17.89
2023-09-23T09:16:09.773Z,17.87
2023-09-23T09:18:40.369Z,17.86
2023-09-23T09:21:10.872Z,17.88
2023-09-23T09:23:41.521Z,17.93
2023-09-23T09:26:12.233Z,17.98
2023-09-23T09:28:43.511Z,18.01
2023-09-23T09:31:15.650Z,18.03
2023-09-23T09:33:51.233Z,18.06
2023-09-23T09:36:24.776Z,18.11
2023-09-23T09:38:59.207Z,18.10
2023-09-23T09:41:36.799Z,18.08
2023-09-23T09:44:09.954Z,18.07
2023-09-23T09:46:43.081Z,18.03
2023-09-23T09:49:17.633Z,18.04
2023-09-23T09:51:49.964Z,18.04
2023-09-23T09:54:22.953Z,18.02
2023-09-23T09:56:57.212Z,18.01
2023-09-23T09:59:31.491Z,18.00
2023-09-23T10:02:05.334Z,17.98
2023-09-23T10:04:36.311Z,18.00
2023-09-23T10:07:10.468Z,18.03
2023-09-23T10:09:53.260Z,18.03
2023-09-23T10:12:27.917Z,18.06
2023-09-23T10:14:59.784Z,18.09
2023-09-23T10:17:34.862Z,18.15
2023-09-23T10:20:14.562Z,18.20
2023-09-23T10:22:54.704Z,18.26
2023-09-23T10:25:25.343Z,18.32
2023-09-23T10:28:01.702Z,18.39
2023-09-23T10:30:34.014Z,18.43
2023-09-23T10:33:06.118Z,18.47
2023-09-23T10:35:38.975Z,18.50
2023-09-23T10:38:09.473Z,18.51
2023-09-23T10:40:40.170Z,18.52
2023-09-23T10:43:10.624Z,18.53
2023-09-23T10:45:41.109Z,18.54
2023-09-23T10:48:11.693Z,18.55
2023-09-23T10:50:42.767Z,18.56
2023-09-23T10:53:13.488Z,18.58
2023-09-23T10:55:44.476Z,18.59
2023-09-23T10:58:15.349Z,18.62
2023-09-23T11:00:47.017Z,18.65
2023-09-23T11:03:18.334Z,18.66
2023-09-23T11:05:50.151Z,18.62
2023-09-23T11:08:20.571Z,18.61
2023-09-23T11:10:51.836Z,18.62
2023-09-23T11:13:22.558Z,18.64
2023-09-23T11:15:53.610Z,18.63
2023-09-23T11:18:25.187Z,18.64
2023-09-23T11:20:55.882Z,18.67
2023-09-23T11:23:31.103Z,18.70
2023-09-23T11:26:02.007Z,18.72
2023-09-23T11:28:32.642Z,18.71
2023-09-23T11:31:03.213Z,18.69
2023-09-23T11:33:34.635Z,18.64
2023-09-23T11:36:05.633Z,18.61
2023-09-23T11:38:36.380Z,18.59
2023-09-23T11:41:07.910Z,18.60
2023-09-23T11:43:38.397Z,18.62
2023-09-23T11:46:08.871Z,18.63
2023-09-23T11:48:39.375Z,18.63
2023-09-23T11:51:10.747Z,18.62
2023-09-23T11:53:42.497Z,18.62
2023-09-23T11:56:13.896Z,18.62
2023-09-23T11:58:51.648Z,18.64
2023-09-23T12:01:32.626Z,18.65
2023-09-23T12:04:03.827Z,18.67
2023-09-23T12:06:36.575Z,18.67
2023-09-23T12:09:10.452Z,18.69
2023-09-23T12:11:41.277Z,18.70
2023-09-23T12:14:12.246Z,18.71
2023-09-23T12:16:43.353Z,18.72
2023-09-23T12:19:14.999Z,18.73
2023-09-23T12:21:46.058Z,18.76
2023-09-23T12:24:16.502Z,18.78
2023-09-23T12:26:47.374Z,18.80
2023-09-23T12:29:17.946Z,18.81
2023-09-23T12:31:48.462Z,18.80
2023-09-23T12:34:19.276Z,18.78
2023-09-23T12:36:51.261Z,18.78
2023-09-23T12:39:23.418Z,18.75
2023-09-23T12:41:54.469Z,18.74
2023-09-23T12:44:25.249Z,18.73
2023-09-23T12:46:55.850Z,18.72
2023-09-23T12:49:26.824Z,18.72
2023-09-23T12:51:57.664Z,18.72
2023-09-23T12:54:28.185Z,18.74
2023-09-23T12:56:58.948Z,18.76
2023-09-23T12:59:29.748Z,18.78
2023-09-23T13:02:00.386Z,18.78
2023-09-23T13:04:30.920Z,18.79
2023-09-23T13:07:01.429Z,18.78
2023-09-23T13:09:31.954Z,18.79
2023-09-23T13:12:02.789Z,18.80
2023-09-23T13:14:33.379Z,18.80
2023-09-23T13:17:04.057Z,18.79
2023-09-23T13:19:35.324Z,18.78
2023-09-23T13:22:06.463Z,18.77
2023-09-23T13:24:37.026Z,18.75
2023-09-23T13:27:07.666Z,18.73
2023-09-23T13:29:38.241Z,18.70
2023-09-23T13:32:08.993Z,18.69
2023-09-23T13:34:39.543Z,18.67
2023-09-23T13:37:10.389Z,18.66
2023-09-23T13:39:40.901Z,18.64
2023-09-23T13:42:11.718Z,18.65
2023-09-23T13:44:43.571Z,18.66
2023-09-23T13:47:14.293Z,18.64
2023-09-23T13:49:44.918Z,18.65
2023-09-23T13:52:15.379Z,18.65
2023-09-23T13:54:45.850Z,18.64
2023-09-23T13:57:16.868Z,18.60
2023-09-23T13:59:47.391Z,18.54
2023-09-23T14:02:19.451Z,18.49
2023-09-23T14:04:50.005Z,18.47
2023-09-23T14:07:20.590Z,18.47
2023-09-23T14:09:51.110Z,18.47
2023-09-23T14:12:21.847Z,18.45
2023-09-23T14:14:52.333Z,18.42
2023-09-23T14:17:23.596Z,18.39
2023-09-23T14:19:54.609Z,18.37
2023-09-23T14:22:25.114Z,18.35
2023-09-23T14:24:55.619Z,18.33
2023-09-23T14:27:26.122Z,18.33
2023-09-23T14:29:56.646Z,18.32
2023-09-23T14:32:27.238Z,18.29
2023-09-23T14:34:57.822Z,18.26
2023-09-23T14:37:28.736Z,18.24
2023-09-23T14:39:59.657Z,18.23
2023-09-23T14:42:31.291Z,18.21
2023-09-23T14:45:01.808Z,18.20
2023-09-23T14:47:32.527Z,18.20
2023-09-23T14:50:03.589Z,18.20
2023-09-23T14:52:34.323Z,18.21
2023-09-23T14:55:06.511Z,18.23
2023-09-23T14:57:37.249Z,18.24
2023-09-23T15:00:11.011Z,18.25
2023-09-23T15:02:42.341Z,18.24
2023-09-23T15:05:13.726Z,18.22
2023-09-23T15:07:44.371Z,18.19
2023-09-23T15:10:14.844Z,18.17
2023-09-23T15:12:45.612Z,18.15
2023-09-23T15:15:16.808Z,18.15
2023-09-23T15:17:47.387Z,18.16
2023-09-23T15:20:18.238Z,18.17
2023-09-23T15:22:49.777Z,18.17
2023-09-23T15:25:20.561Z,18.19
2023-09-23T15:27:51.092Z,18.21
2023-09-23T15:30:24.075Z,18.23
2023-09-23T15:32:54.690Z,18.25
2023-09-23T15:35:25.366Z,18.28
2023-09-23T15:37:55.827Z,18.29
2023-09-23T15:40:26.371Z,18.28
2023-09-23T15:42:56.869Z,18.26
2023-09-23T15:45:28.270Z,18.25
2023-09-23T15:47:58.915Z,18.25
2023-09-23T15:50:30.257Z,18.25
2023-09-23T15:53:00.938Z,18.20
2023-09-23T15:55:31.371Z,18.16
2023-09-23T15:58:02.073Z,18.16
2023-09-23T16:00:32.792Z,18.12
2023-09-23T16:03:03.417Z,18.08
2023-09-23T16:05:34.185Z,18.07
2023-09-23T16:08:05.114Z,18.05
2023-09-23T16:10:36.167Z,18.03
2023-09-23T16:13:07.158Z,18.02
2023-09-23T16:15:37.701Z,18.01
2023-09-23T16:18:09.073Z,18.00
2023-09-23T16:20:39.927Z,18.01
2023-09-23T16:23:10.690Z,18.01
2023-09-23T16:25:41.259Z,18.01
2023-09-23T16:28:11.694Z,17.99
2023-09-23T16:30:43.188Z,17.97
2023-09-23T16:33:13.933Z,17.92
2023-09-23T16:35:44.870Z,17.90
2023-09-23T16:38:16.086Z,17.90
2023-09-23T16:40:48.984Z,17.90
2023-09-23T16:43:19.824Z,17.88
2023-09-23T16:45:51.205Z,17.86
2023-09-23T16:48:22.125Z,17.86
2023-09-23T16:50:55.055Z,17.88
2023-09-23T16:53:25.762Z,17.87
2023-09-23T16:55:56.277Z,17.86
2023-09-23T16:58:26.800Z,17.87
2023-09-23T17:00:57.326Z,17.87
2023-09-23T17:03:28.927Z,17.87
2023-09-23T17:05:58.020Z,17.88
2023-09-23T17:08:29.273Z,17.86
2023-09-23T17:11:00.252Z,17.86
2023-09-23T17:13:32.210Z,17.86
2023-09-23T17:16:03.822Z,17.85
2023-09-23T17:18:34.419Z,17.85
2023-09-23T17:21:05.528Z,17.85
2023-09-23T17:23:36.055Z,17.84
2023-09-23T17:26:06.905Z,17.84
2023-09-23T17:28:37.450Z,17.83
2023-09-23T17:31:12.855Z,17.82
2023-09-23T17:33:43.399Z,17.81
2023-09-23T17:36:13.990Z,17.80
2023-09-23T17:38:44.475Z,17.80
2023-09-23T17:41:15.268Z,17.79
2023-09-23T17:43:46.447Z,17.78
2023-09-23T17:46:17.243Z,17.78
2023-09-23T17:48:48.208Z,17.77
2023-09-23T17:51:19.044Z,17.75
2023-09-23T17:53:49.689Z,17.74
2023-09-23T17:56:20.360Z,17.73
2023-09-23T17:58:51.161Z,17.71
2023-09-23T18:01:21.744Z,17.69
2023-09-23T18:03:53.239Z,17.66
2023-09-23T18:06:24.568Z,17.65
2023-09-23T18:08:55.217Z,17.63
2023-09-23T18:11:26.204Z,17.62
2023-09-23T18:13:57.833Z,17.60
2023-09-23T18:16:28.342Z,17.56
2023-09-23T18:18:59.106Z,17.53
2023-09-23T18:21:29.812Z,17.50
2023-09-23T18:24:00.459Z,17.48
2023-09-23T18:26:31.130Z,17.45
2023-09-23T18:29:01.772Z,17.43
2023-09-23T18:31:33.799Z,17.41
2023-09-23T18:34:04.576Z,17.40
2023-09-23T18:36:35.666Z,17.39
2023-09-23T18:39:06.797Z,17.37
2023-09-23T18:41:37.422Z,17.35
2023-09-23T18:44:09.255Z,17.32
2023-09-23T18:46:38.595Z,17.28
2023-09-23T18:49:09.249Z,17.25
2023-09-23T18:51:39.844Z,17.23
2023-09-23T18:54:10.494Z,17.21
2023-09-23T18:56:40.993Z,17.20
2023-09-23T18:59:11.660Z,17.18
2023-09-23T19:01:42.385Z,17.19
2023-09-23T19:04:13.011Z,17.18
2023-09-23T19:06:43.721Z,17.17
2023-09-23T19:09:14.554Z,17.16
2023-09-23T19:11:45.098Z,17.14
2023-09-23T19:14:15.996Z,17.12
2023-09-23T19:16:46.585Z,17.11
2023-09-23T19:19:18.634Z,17.09
2023-09-23T19:21:49.086Z,17.07
2023-09-23T19:24:19.814Z,17.05
2023-09-23T19:26:57.233Z,17.03
2023-09-23T19:29:26.957Z,17.00
2023-09-23T19:32:00.109Z,16.96
2023-09-23T19:34:31.019Z,16.94
2023-09-23T19:37:01.991Z,16.92
2023-09-23T19:39:34.069Z,16.91
2023-09-23T19:42:04.620Z,16.89
2023-09-23T19:44:35.211Z,16.88
2023-09-23T19:47:07.657Z,16.87
2023-09-23T19:49:38.936Z,16.87
2023-09-23T19:52:10.130Z,16.86
2023-09-23T19:54:41.358Z,16.83
2023-09-23T19:57:11.920Z,16.82
2023-09-23T19:59:42.383Z,16.78
2023-09-23T20:02:13.008Z,16.76
2023-09-23T20:04:47.104Z,16.75
2023-09-23T20:07:17.628Z,16.74
2023-09-23T20:09:48.163Z,16.73
2023-09-23T20:12:18.915Z,16.72
2023-09-23T20:14:49.501Z,16.70
2023-09-23T20:17:19.996Z,16.68
2023-09-23T20:19:52.256Z,16.66
2023-09-23T20:22:22.693Z,16.65
2023-09-23T20:24:53.208Z,16.63
2023-09-23T20:27:25.517Z,16.62
2023-09-23T20:30:06.363Z,16.60
2023-09-23T20:32:39.813Z,16.59
2023-09-23T20:35:12.869Z,16.57
2023-09-23T20:37:44.616Z,16.56
2023-09-23T20:40:16.988Z,16.55
2023-09-23T20:42:47.970Z,16.53
2023-09-23T20:45:18.758Z,16.52
2023-09-23T20:47:49.376Z,16.53
2023-09-23T20:50:20.185Z,16.54
2023-09-23T20:52:50.836Z,16.55
2023-09-23T20:55:21.405Z,16.53
2023-09-23T20:57:51.909Z,16.53
2023-09-23T21:00:23.373Z,16.51
2023-09-23T21:02:54.061Z,16.48
2023-09-23T21:05:24.864Z,16.47
2023-09-23T21:07:55.515Z,16.45
2023-09-23T21:10:26.369Z,16.42
2023-09-23T21:12:57.408Z,16.41
2023-09-23T21:15:29.478Z,16.38
2023-09-23T21:18:02.397Z,16.35
2023-09-23T21:20:33.302Z,16.32
2023-09-23T21:23:03.916Z,16.29
2023-09-23T21:25:34.348Z,16.26
2023-09-23T21:28:05.456Z,16.23
2023-09-23T21:30:37.865Z,16.21
2023-09-23T21:33:08.553Z,16.20
2023-09-23T21:35:40.679Z,16.18
2023-09-23T21:38:11.812Z,16.16
2023-09-23T21:40:45.342Z,16.14
2023-09-23T21:43:15.810Z,16.12
2023-09-23T21:45:46.421Z,16.09
2023-09-23T21:48:17.288Z,16.08
2023-09-23T21:50:55.740Z,16.08
2023-09-23T21:53:26.455Z,16.06
2023-09-23T21:55:59.691Z,16.03
2023-09-23T21:58:30.554Z,16.03
2023-09-23T22:01:01.576Z,16.03
2023-09-23T22:03:32.568Z,16.03
2023-09-23T22:06:06.549Z,16.03
2023-09-23T22:08:37.425Z,16.01
2023-09-23T22:11:07.960Z,16.00
2023-09-23T22:13:39.771Z,16.00
2023-09-23T22:16:09.121Z,16.01
2023-09-23T22:18:41.211Z,16.00
2023-09-23T22:21:11.787Z,16.01
2023-09-23T22:23:42.352Z,16.03
2023-09-23T22:26:16.858Z,16.02
2023-09-23T22:28:47.403Z,16.02
2023-09-23T22:31:19.230Z,16.00
2023-09-23T22:33:48.645Z,15.98
2023-09-23T22:36:20.171Z,15.97
2023-09-23T22:38:50.710Z,15.95
2023-09-23T22:41:21.851Z,15.93
2023-09-23T22:43:52.304Z,15.93
2023-09-23T22:46:22.789Z,15.91
2023-09-23T22:48:54.996Z,15.89
2023-09-23T22:51:26.258Z,15.87
2023-09-23T22:53:57.411Z,15.84
2023-09-23T22:56:28.184Z,15.80
2023-09-23T22:58:58.685Z,15.77
2023-09-23T23:01:29.165Z,15.73
2023-09-23T23:04:01.346Z,15.70
2023-09-23T23:06:32.252Z,15.67
2023-09-23T23:09:02.845Z,15.66
2023-09-23T23:11:33.323Z,15.64
2023-09-23T23:14:05.490Z,15.64
2023-09-23T23:16:38.935Z,15.63
2023-09-23T23:19:12.298Z,15.62
2023-09-23T23:21:42.744Z,15.61
2023-09-23T23:24:13.606Z,15.62
2023-09-23T23:26:44.181Z,15.62
2023-09-23T23:29:17.613Z,15.63
2023-09-23T23:31:50.211Z,15.64
2023-09-23T23:34:20.727Z,15.64
2023-09-23T23:36:51.181Z,15.64
2023-09-23T23:39:21.660Z,15.64
2023-09-23T23:41:52.122Z,15.63
2023-09-23T23:44:24.054Z,15.63
2023-09-23T23:46:54.865Z,15.61
2023-09-23T23:49:25.855Z,15.61
2023-09-23T23:51:56.938Z,15.58
2023-09-23T23:54:28.837Z,15.56
2023-09-23T23:56:59.862Z,15.54
2023-09-23T23:59:30.363Z,15.52
